CMP181 MPTO-SYCJ
Flight info
| Callsign | CMP181 |
|---|---|
| Flight time | 3h 3m |
| Altitude | 35000 |
| Route | REMAL DCT ESEDA DCT ESDEB DCT TIBUS DCT ELOYS DCT EDREL UP549 TIM |
| Aircraft | B738/M-SDE2E3FGHIRWXY/LB1 |
Departure
| Time | 2026-05-05 18:23 |
|---|---|
| Airport | Tocumen International Airport (MPTO) |
Arrival
| Time | 2026-05-05 21:27 |
|---|---|
| Airport | Cheddi Jagan International Airport (SYCJ) |
| Time | Latitude | Longitude | Altitude | Speed | Heading |
|---|---|---|---|---|---|
| 2026-05-05 17:43 | 9.06762 | -79.38487 | 57 ft | 0 kts | 320° |
| 2026-05-05 18:09 | 9.06757 | -79.38483 | 56 ft | 2 kts | 320° |
| 2026-05-05 18:09 | 9.06745 | -79.38473 | 56 ft | 2 kts | 320° |
| 2026-05-05 18:10 | 9.06734 | -79.38463 | 55 ft | 2 kts | 320° |
| 2026-05-05 18:10 | 9.06723 | -79.38454 | 55 ft | 1 kts | 330° |
| 2026-05-05 18:10 | 9.06711 | -79.38450 | 55 ft | 1 kts | 2° |
| 2026-05-05 18:10 | 9.06697 | -79.38452 | 54 ft | 1 kts | 25° |
| 2026-05-05 18:11 | 9.06691 | -79.38456 | 54 ft | 0 kts | 37° |
| 2026-05-05 18:11 | 9.06697 | -79.38452 | 54 ft | 2 kts | 32° |
| 2026-05-05 18:11 | 9.06710 | -79.38444 | 54 ft | 2 kts | 32° |
| 2026-05-05 18:11 | 9.06723 | -79.38437 | 55 ft | 1 kts | 28° |
| 2026-05-05 18:14 | 9.06724 | -79.38436 | 54 ft | 0 kts | 28° |
| 2026-05-05 18:14 | 9.06727 | -79.38435 | 55 ft | 0 kts | 26° |
| 2026-05-05 18:14 | 9.06735 | -79.38430 | 55 ft | 1 kts | 26° |
| 2026-05-05 18:15 | 9.06751 | -79.38422 | 55 ft | 3 kts | 26° |
| 2026-05-05 18:15 | 9.06776 | -79.38410 | 55 ft | 4 kts | 27° |
| 2026-05-05 18:15 | 9.06811 | -79.38391 | 54 ft | 6 kts | 27° |
| 2026-05-05 18:15 | 9.06848 | -79.38360 | 54 ft | 8 kts | 54° |
| 2026-05-05 18:16 | 9.06881 | -79.38303 | 52 ft | 10 kts | 60° |
| 2026-05-05 18:16 | 9.06924 | -79.38235 | 51 ft | 11 kts | 52° |
| 2026-05-05 18:16 | 9.06986 | -79.38184 | 50 ft | 11 kts | 29° |
| 2026-05-05 18:16 | 9.07049 | -79.38148 | 49 ft | 9 kts | 28° |
| 2026-05-05 18:17 | 9.07101 | -79.38116 | 49 ft | 8 kts | 31° |
| 2026-05-05 18:17 | 9.07145 | -79.38091 | 49 ft | 6 kts | 30° |
| 2026-05-05 18:17 | 9.07179 | -79.38071 | 49 ft | 4 kts | 30° |
| 2026-05-05 18:17 | 9.07206 | -79.38049 | 48 ft | 6 kts | 54° |
| 2026-05-05 18:18 | 9.07204 | -79.38003 | 47 ft | 5 kts | 120° |
| 2026-05-05 18:18 | 9.07200 | -79.37996 | 46 ft | 0 kts | 120° |
| 2026-05-05 18:21 | 9.07195 | -79.37987 | 46 ft | 4 kts | 120° |
| 2026-05-05 18:21 | 9.07165 | -79.37935 | 44 ft | 10 kts | 120° |
| 2026-05-05 18:21 | 9.07124 | -79.37917 | 44 ft | 4 kts | 216° |
| 2026-05-05 18:22 | 9.07111 | -79.37925 | 44 ft | 0 kts | 210° |
| 2026-05-05 18:22 | 9.07107 | -79.37927 | 44 ft | 2 kts | 210° |
| 2026-05-05 18:22 | 9.06944 | -79.38020 | 46 ft | 61 kts | 209° |
| 2026-05-05 18:23 | 9.06387 | -79.38335 | 46 ft | 121 kts | 209° |
| 2026-05-05 18:23 | 9.05501 | -79.38841 | 34 ft | 171 kts | 210° |
| 2026-05-05 18:23 | 9.04454 | -79.39456 | 559 ft | 173 kts | 210° |
| 2026-05-05 18:23 | 9.03439 | -79.40084 | 1155 ft | 172 kts | 214° |
| 2026-05-05 18:24 | 9.02446 | -79.40752 | 1598 ft | 175 kts | 214° |
| 2026-05-05 18:24 | 9.01399 | -79.41451 | 1964 ft | 181 kts | 212° |
| 2026-05-05 18:24 | 9.00299 | -79.42051 | 2415 ft | 180 kts | 194° |
| 2026-05-05 18:24 | 8.99072 | -79.42110 | 2893 ft | 176 kts | 176° |
| 2026-05-05 18:25 | 8.97891 | -79.41813 | 3218 ft | 184 kts | 149° |
| 2026-05-05 18:25 | 8.97214 | -79.41238 | 3202 ft | 201 kts | 125° |
| 2026-05-05 18:25 | 8.96629 | -79.39355 | 3407 ft | 226 kts | 90° |
| 2026-05-05 18:25 | 8.96682 | -79.37701 | 3644 ft | 246 kts | 86° |
| 2026-05-05 18:26 | 8.96767 | -79.35912 | 3915 ft | 264 kts | 86° |
| 2026-05-05 18:26 | 8.96845 | -79.34043 | 4532 ft | 267 kts | 86° |
| 2026-05-05 18:26 | 8.96926 | -79.32182 | 5079 ft | 273 kts | 87° |
| 2026-05-05 18:26 | 8.96997 | -79.30254 | 5806 ft | 272 kts | 87° |
| 2026-05-05 18:27 | 8.97072 | -79.28356 | 6389 ft | 276 kts | 86° |
| 2026-05-05 18:27 | 8.97150 | -79.26422 | 7047 ft | 277 kts | 87° |
| 2026-05-05 18:27 | 8.97204 | -79.24461 | 7687 ft | 279 kts | 88° |
| 2026-05-05 18:27 | 8.97259 | -79.22482 | 8291 ft | 283 kts | 87° |
| 2026-05-05 18:28 | 8.97386 | -79.18519 | 9583 ft | 287 kts | 87° |
| 2026-05-05 18:28 | 8.97452 | -79.16489 | 10183 ft | 291 kts | 88° |
| 2026-05-05 18:28 | 8.97519 | -79.14395 | 10363 ft | 310 kts | 88° |
| 2026-05-05 18:29 | 8.97592 | -79.12152 | 10612 ft | 326 kts | 88° |
| 2026-05-05 18:29 | 8.97667 | -79.09859 | 11264 ft | 328 kts | 88° |
| 2026-05-05 18:29 | 8.97743 | -79.07551 | 11877 ft | 331 kts | 88° |
| 2026-05-05 18:29 | 8.97820 | -79.05224 | 12500 ft | 333 kts | 88° |
| 2026-05-05 18:30 | 8.97895 | -79.02874 | 13139 ft | 335 kts | 88° |
| 2026-05-05 18:30 | 8.97972 | -79.00500 | 13718 ft | 339 kts | 88° |
| 2026-05-05 18:30 | 8.98050 | -78.98119 | 14332 ft | 342 kts | 88° |
| 2026-05-05 18:30 | 8.98128 | -78.95733 | 14991 ft | 343 kts | 88° |
| 2026-05-05 18:31 | 8.98206 | -78.93329 | 15641 ft | 345 kts | 88° |
| 2026-05-05 18:31 | 8.98284 | -78.90907 | 16209 ft | 349 kts | 88° |
| 2026-05-05 18:31 | 8.98363 | -78.88434 | 16841 ft | 350 kts | 88° |
| 2026-05-05 18:31 | 8.98442 | -78.85978 | 17328 ft | 355 kts | 88° |
| 2026-05-05 18:32 | 8.98522 | -78.83506 | 17993 ft | 354 kts | 88° |
| 2026-05-05 18:32 | 8.98601 | -78.80997 | 18354 ft | 361 kts | 88° |
| 2026-05-05 18:32 | 8.98681 | -78.78446 | 18906 ft | 361 kts | 88° |
| 2026-05-05 18:32 | 8.98762 | -78.75897 | 19339 ft | 365 kts | 88° |
| 2026-05-05 18:33 | 8.98843 | -78.73345 | 19734 ft | 370 kts | 88° |
| 2026-05-05 18:33 | 8.98925 | -78.70748 | 20215 ft | 371 kts | 88° |
| 2026-05-05 18:33 | 8.99008 | -78.68137 | 20572 ft | 376 kts | 88° |
| 2026-05-05 18:33 | 8.99092 | -78.65483 | 21052 ft | 377 kts | 88° |
| 2026-05-05 18:34 | 8.99175 | -78.62838 | 21450 ft | 380 kts | 88° |
| 2026-05-05 18:34 | 8.99260 | -78.60134 | 21838 ft | 383 kts | 88° |
| 2026-05-05 18:34 | 8.99344 | -78.57460 | 22255 ft | 386 kts | 87° |
| 2026-05-05 18:34 | 8.99429 | -78.54745 | 22686 ft | 389 kts | 87° |
| 2026-05-05 18:35 | 8.99515 | -78.51997 | 23100 ft | 392 kts | 87° |
| 2026-05-05 18:35 | 8.99602 | -78.49216 | 23511 ft | 395 kts | 87° |
| 2026-05-05 18:35 | 8.99689 | -78.46442 | 23906 ft | 399 kts | 87° |
| 2026-05-05 18:35 | 8.99777 | -78.43635 | 24311 ft | 401 kts | 87° |
| 2026-05-05 18:36 | 8.99865 | -78.40833 | 24716 ft | 403 kts | 87° |
| 2026-05-05 18:36 | 8.99954 | -78.37968 | 25106 ft | 406 kts | 87° |
| 2026-05-05 18:36 | 9.00044 | -78.35144 | 25463 ft | 409 kts | 87° |
| 2026-05-05 18:36 | 9.00133 | -78.32254 | 25849 ft | 411 kts | 87° |
| 2026-05-05 18:37 | 9.00222 | -78.29356 | 26215 ft | 413 kts | 87° |
| 2026-05-05 18:37 | 9.00310 | -78.26451 | 26574 ft | 415 kts | 87° |
| 2026-05-05 18:37 | 9.00400 | -78.23531 | 26923 ft | 417 kts | 87° |
| 2026-05-05 18:37 | 9.00490 | -78.20615 | 27241 ft | 420 kts | 87° |
| 2026-05-05 18:38 | 9.00580 | -78.17653 | 27587 ft | 422 kts | 88° |
| 2026-05-05 18:38 | 9.00670 | -78.14677 | 27909 ft | 424 kts | 88° |
| 2026-05-05 18:38 | 9.00760 | -78.11690 | 28234 ft | 426 kts | 88° |
| 2026-05-05 18:38 | 9.00850 | -78.08696 | 28548 ft | 428 kts | 88° |
| 2026-05-05 18:39 | 9.00940 | -78.05685 | 28854 ft | 430 kts | 88° |
| 2026-05-05 18:39 | 9.01031 | -78.02681 | 29136 ft | 433 kts | 88° |
| 2026-05-05 18:39 | 9.01123 | -77.99631 | 29437 ft | 435 kts | 88° |
| 2026-05-05 18:39 | 9.01214 | -77.96544 | 29680 ft | 438 kts | 88° |
| 2026-05-05 18:40 | 9.01304 | -77.93494 | 29980 ft | 439 kts | 88° |
| 2026-05-05 18:40 | 9.01395 | -77.90402 | 30256 ft | 441 kts | 88° |
| 2026-05-05 18:40 | 9.01487 | -77.87292 | 30525 ft | 443 kts | 88° |
| 2026-05-05 18:40 | 9.01578 | -77.84205 | 30787 ft | 445 kts | 88° |
| 2026-05-05 18:41 | 9.01670 | -77.81068 | 31047 ft | 446 kts | 88° |
| 2026-05-05 18:41 | 9.01762 | -77.77951 | 31304 ft | 448 kts | 88° |
| 2026-05-05 18:41 | 9.01854 | -77.74786 | 31610 ft | 448 kts | 88° |
| 2026-05-05 18:41 | 9.01946 | -77.71641 | 31942 ft | 448 kts | 88° |
| 2026-05-05 18:42 | 9.02037 | -77.68492 | 32274 ft | 447 kts | 88° |
| 2026-05-05 18:42 | 9.02127 | -77.65376 | 32596 ft | 446 kts | 88° |
| 2026-05-05 18:42 | 9.02218 | -77.62234 | 32914 ft | 445 kts | 88° |
| 2026-05-05 18:42 | 9.02307 | -77.59137 | 33224 ft | 445 kts | 88° |
| 2026-05-05 18:43 | 9.02397 | -77.55991 | 33533 ft | 444 kts | 88° |
| 2026-05-05 18:43 | 9.02486 | -77.52908 | 33820 ft | 443 kts | 88° |
| 2026-05-05 18:43 | 9.02574 | -77.49802 | 34111 ft | 442 kts | 88° |
| 2026-05-05 18:43 | 9.02663 | -77.46698 | 34390 ft | 442 kts | 88° |
| 2026-05-05 18:44 | 9.02728 | -77.43621 | 34657 ft | 441 kts | 89° |
| 2026-05-05 18:44 | 9.02581 | -77.40498 | 34894 ft | 442 kts | 95° |
| 2026-05-05 18:44 | 9.01897 | -77.34267 | 34911 ft | 450 kts | 96° |
| 2026-05-05 18:45 | 9.01153 | -77.28006 | 34911 ft | 448 kts | 96° |
| 2026-05-05 18:45 | 9.00408 | -77.21781 | 35283 ft | 441 kts | 96° |
| 2026-05-05 18:46 | 9.00044 | -77.18755 | 35567 ft | 440 kts | 96° |
| 2026-05-05 18:46 | 8.99672 | -77.15672 | 35796 ft | 440 kts | 96° |
| 2026-05-05 18:46 | 8.99302 | -77.12599 | 36057 ft | 439 kts | 96° |
| 2026-05-05 18:46 | 8.98934 | -77.09551 | 36313 ft | 439 kts | 96° |
| 2026-05-05 18:47 | 8.98561 | -77.06470 | 36556 ft | 439 kts | 96° |
| 2026-05-05 18:47 | 8.98192 | -77.03419 | 36794 ft | 439 kts | 96° |
| 2026-05-05 18:47 | 8.97823 | -77.00359 | 36924 ft | 442 kts | 96° |
| 2026-05-05 18:47 | 8.97451 | -76.97295 | 36912 ft | 446 kts | 96° |
| 2026-05-05 18:48 | 8.96693 | -76.91061 | 36910 ft | 446 kts | 96° |
| 2026-05-05 18:48 | 8.95938 | -76.84863 | 36911 ft | 443 kts | 96° |
| 2026-05-05 18:49 | 8.95185 | -76.78682 | 36912 ft | 443 kts | 96° |
| 2026-05-05 18:49 | 8.94432 | -76.72514 | 36912 ft | 444 kts | 96° |
| 2026-05-05 18:50 | 8.93675 | -76.66312 | 36912 ft | 445 kts | 96° |
| 2026-05-05 18:50 | 8.92919 | -76.60135 | 36912 ft | 444 kts | 96° |
| 2026-05-05 18:51 | 8.92161 | -76.53954 | 36912 ft | 444 kts | 96° |
| 2026-05-05 18:51 | 8.91398 | -76.47729 | 36912 ft | 444 kts | 96° |
| 2026-05-05 18:52 | 8.90642 | -76.41576 | 36912 ft | 444 kts | 96° |
| 2026-05-05 18:52 | 8.89880 | -76.35383 | 36912 ft | 444 kts | 96° |
| 2026-05-05 18:53 | 8.89115 | -76.29176 | 36912 ft | 444 kts | 97° |
| 2026-05-05 18:53 | 8.88355 | -76.23011 | 36912 ft | 444 kts | 97° |
| 2026-05-05 18:54 | 8.87587 | -76.16798 | 36912 ft | 444 kts | 97° |
| 2026-05-05 18:54 | 8.86824 | -76.10629 | 36912 ft | 445 kts | 97° |
| 2026-05-05 18:55 | 8.86057 | -76.04438 | 36910 ft | 445 kts | 97° |
| 2026-05-05 18:55 | 8.85284 | -75.98215 | 36902 ft | 445 kts | 97° |
| 2026-05-05 18:56 | 8.84519 | -75.92049 | 36896 ft | 446 kts | 97° |
| 2026-05-05 18:56 | 8.83742 | -75.85799 | 36888 ft | 446 kts | 97° |
| 2026-05-05 18:57 | 8.82821 | -75.79648 | 36885 ft | 446 kts | 101° |
| 2026-05-05 18:57 | 8.81538 | -75.73491 | 36885 ft | 446 kts | 101° |
| 2026-05-05 18:58 | 8.80266 | -75.67374 | 36885 ft | 446 kts | 101° |
| 2026-05-05 18:58 | 8.79007 | -75.61259 | 36885 ft | 446 kts | 101° |
| 2026-05-05 18:59 | 8.77749 | -75.55110 | 36885 ft | 446 kts | 101° |
| 2026-05-05 18:59 | 8.76496 | -75.48975 | 36885 ft | 446 kts | 101° |
| 2026-05-05 19:00 | 8.75245 | -75.42841 | 36885 ft | 446 kts | 101° |
| 2026-05-05 19:00 | 8.74000 | -75.36731 | 36885 ft | 446 kts | 101° |
| 2026-05-05 19:01 | 8.72744 | -75.30577 | 36885 ft | 446 kts | 101° |
| 2026-05-05 19:01 | 8.71497 | -75.24464 | 36885 ft | 446 kts | 101° |
| 2026-05-05 19:02 | 8.70239 | -75.18304 | 36885 ft | 446 kts | 101° |
| 2026-05-05 19:02 | 8.68992 | -75.12198 | 36857 ft | 446 kts | 101° |
| 2026-05-05 19:03 | 8.67737 | -75.06067 | 36858 ft | 446 kts | 101° |
| 2026-05-05 19:03 | 8.66488 | -74.99961 | 36858 ft | 446 kts | 101° |
| 2026-05-05 19:04 | 8.65230 | -74.93826 | 36858 ft | 446 kts | 101° |
| 2026-05-05 19:04 | 8.63972 | -74.87691 | 36858 ft | 446 kts | 101° |
| 2026-05-05 19:05 | 8.62718 | -74.81575 | 36860 ft | 446 kts | 101° |
| 2026-05-05 19:05 | 8.61455 | -74.75429 | 36868 ft | 446 kts | 101° |
| 2026-05-05 19:06 | 8.60192 | -74.69291 | 36883 ft | 446 kts | 101° |
| 2026-05-05 19:06 | 8.58937 | -74.63190 | 36905 ft | 446 kts | 101° |
| 2026-05-05 19:07 | 8.57675 | -74.57056 | 36942 ft | 446 kts | 101° |
| 2026-05-05 19:07 | 8.56414 | -74.50938 | 36974 ft | 447 kts | 101° |
| 2026-05-05 19:08 | 8.55145 | -74.44791 | 37000 ft | 447 kts | 101° |
| 2026-05-05 19:08 | 8.53877 | -74.38650 | 37019 ft | 447 kts | 101° |
| 2026-05-05 19:09 | 8.52611 | -74.32520 | 37016 ft | 447 kts | 102° |
| 2026-05-05 19:09 | 8.51343 | -74.26384 | 37014 ft | 448 kts | 102° |
| 2026-05-05 19:10 | 8.50066 | -74.20218 | 37014 ft | 448 kts | 102° |
| 2026-05-05 19:10 | 8.48794 | -74.14075 | 37015 ft | 447 kts | 102° |
| 2026-05-05 19:11 | 8.47519 | -74.07925 | 37005 ft | 447 kts | 102° |
| 2026-05-05 19:11 | 8.46248 | -74.01800 | 36994 ft | 446 kts | 102° |
| 2026-05-05 19:12 | 8.44981 | -73.95694 | 36985 ft | 446 kts | 102° |
| 2026-05-05 19:12 | 8.43709 | -73.89577 | 36979 ft | 447 kts | 102° |
| 2026-05-05 19:13 | 8.42429 | -73.83420 | 36978 ft | 447 kts | 102° |
| 2026-05-05 19:13 | 8.41156 | -73.77306 | 36975 ft | 447 kts | 102° |
| 2026-05-05 19:14 | 8.39874 | -73.71151 | 36971 ft | 448 kts | 102° |
| 2026-05-05 19:14 | 8.38598 | -73.65029 | 36965 ft | 448 kts | 102° |
| 2026-05-05 19:15 | 8.37313 | -73.58869 | 36966 ft | 447 kts | 102° |
| 2026-05-05 19:15 | 8.36039 | -73.52770 | 36966 ft | 447 kts | 102° |
| 2026-05-05 19:16 | 8.34758 | -73.46635 | 36966 ft | 447 kts | 102° |
| 2026-05-05 19:16 | 8.33478 | -73.40517 | 36966 ft | 446 kts | 102° |
| 2026-05-05 19:17 | 8.32212 | -73.34375 | 36965 ft | 446 kts | 99° |
| 2026-05-05 19:17 | 8.31405 | -73.28168 | 36966 ft | 448 kts | 96° |
| 2026-05-05 19:18 | 8.30696 | -73.21953 | 36965 ft | 447 kts | 96° |
| 2026-05-05 19:18 | 8.29978 | -73.15751 | 36966 ft | 446 kts | 96° |
| 2026-05-05 19:19 | 8.29247 | -73.09521 | 36966 ft | 446 kts | 96° |
| 2026-05-05 19:19 | 8.28517 | -73.03337 | 36966 ft | 446 kts | 96° |
| 2026-05-05 19:20 | 8.27785 | -72.97145 | 36966 ft | 446 kts | 96° |
| 2026-05-05 19:20 | 8.27045 | -72.90914 | 36965 ft | 447 kts | 96° |
| 2026-05-05 19:21 | 8.26305 | -72.84695 | 36966 ft | 447 kts | 96° |
| 2026-05-05 19:21 | 8.25564 | -72.78469 | 36966 ft | 446 kts | 96° |
| 2026-05-05 19:22 | 8.24824 | -72.72267 | 36966 ft | 446 kts | 96° |
| 2026-05-05 19:22 | 8.24081 | -72.66049 | 36966 ft | 446 kts | 96° |
| 2026-05-05 19:23 | 8.23339 | -72.59849 | 36966 ft | 446 kts | 96° |
| 2026-05-05 19:23 | 8.22594 | -72.53645 | 36966 ft | 446 kts | 96° |
| 2026-05-05 19:24 | 8.21851 | -72.47447 | 36966 ft | 446 kts | 96° |
| 2026-05-05 19:24 | 8.21104 | -72.41225 | 36966 ft | 446 kts | 96° |
| 2026-05-05 19:25 | 8.20361 | -72.35029 | 36966 ft | 446 kts | 96° |
| 2026-05-05 19:25 | 8.19626 | -72.28813 | 36966 ft | 446 kts | 96° |
| 2026-05-05 19:26 | 8.18895 | -72.22632 | 36966 ft | 446 kts | 96° |
| 2026-05-05 19:26 | 8.18160 | -72.16434 | 36966 ft | 446 kts | 96° |
| 2026-05-05 19:27 | 8.17425 | -72.10240 | 36966 ft | 446 kts | 96° |
| 2026-05-05 19:27 | 8.16686 | -72.04031 | 36966 ft | 446 kts | 96° |
| 2026-05-05 19:28 | 8.15944 | -71.97800 | 36966 ft | 446 kts | 96° |
| 2026-05-05 19:28 | 8.15208 | -71.91626 | 36966 ft | 446 kts | 96° |
| 2026-05-05 19:29 | 8.14466 | -71.85405 | 36966 ft | 446 kts | 96° |
| 2026-05-05 19:29 | 8.13725 | -71.79214 | 36966 ft | 446 kts | 96° |
| 2026-05-05 19:30 | 8.12985 | -71.73028 | 36966 ft | 446 kts | 96° |
| 2026-05-05 19:30 | 8.12242 | -71.66830 | 36966 ft | 446 kts | 96° |
| 2026-05-05 19:31 | 8.11493 | -71.60608 | 36966 ft | 447 kts | 96° |
| 2026-05-05 19:31 | 8.10748 | -71.54402 | 36966 ft | 447 kts | 96° |
| 2026-05-05 19:32 | 8.10001 | -71.48193 | 36966 ft | 446 kts | 96° |
| 2026-05-05 19:32 | 8.09255 | -71.42004 | 36966 ft | 446 kts | 96° |
| 2026-05-05 19:33 | 8.08511 | -71.35829 | 36966 ft | 446 kts | 96° |
| 2026-05-05 19:33 | 8.07761 | -71.29628 | 36966 ft | 445 kts | 96° |
| 2026-05-05 19:34 | 8.07011 | -71.23427 | 36966 ft | 445 kts | 96° |
| 2026-05-05 19:35 | 8.05892 | -71.14189 | 36966 ft | 445 kts | 96° |
| 2026-05-05 19:35 | 8.05137 | -71.07983 | 36966 ft | 445 kts | 96° |
| 2026-05-05 19:36 | 8.04388 | -71.01811 | 36966 ft | 445 kts | 96° |
| 2026-05-05 19:36 | 8.03640 | -70.95650 | 36966 ft | 444 kts | 96° |
| 2026-05-05 19:37 | 8.02886 | -70.89473 | 36966 ft | 444 kts | 96° |
| 2026-05-05 19:37 | 8.02135 | -70.83312 | 36966 ft | 444 kts | 96° |
| 2026-05-05 19:38 | 8.01381 | -70.77147 | 36966 ft | 443 kts | 96° |
| 2026-05-05 19:38 | 8.00628 | -70.70982 | 36966 ft | 443 kts | 96° |
| 2026-05-05 19:39 | 7.99875 | -70.64822 | 36966 ft | 443 kts | 96° |
| 2026-05-05 19:39 | 7.99119 | -70.58671 | 36966 ft | 442 kts | 96° |
| 2026-05-05 19:40 | 7.98368 | -70.52541 | 36966 ft | 442 kts | 96° |
| 2026-05-05 19:40 | 7.97615 | -70.46410 | 36966 ft | 442 kts | 96° |
| 2026-05-05 19:41 | 7.96856 | -70.40251 | 36966 ft | 442 kts | 96° |
| 2026-05-05 19:41 | 7.96101 | -70.34110 | 36966 ft | 442 kts | 96° |
| 2026-05-05 19:42 | 7.95346 | -70.27981 | 36966 ft | 442 kts | 96° |
| 2026-05-05 19:42 | 7.94591 | -70.21868 | 36965 ft | 442 kts | 96° |
| 2026-05-05 19:43 | 7.93831 | -70.15716 | 36966 ft | 442 kts | 96° |
| 2026-05-05 19:43 | 7.93069 | -70.09563 | 36966 ft | 442 kts | 96° |
| 2026-05-05 19:44 | 7.92311 | -70.03449 | 36966 ft | 442 kts | 96° |
| 2026-05-05 19:44 | 7.91548 | -69.97298 | 36966 ft | 442 kts | 96° |
| 2026-05-05 19:45 | 7.90785 | -69.91154 | 36966 ft | 442 kts | 96° |
| 2026-05-05 19:45 | 7.90022 | -69.85021 | 36966 ft | 442 kts | 96° |
| 2026-05-05 19:46 | 7.89257 | -69.78882 | 36966 ft | 442 kts | 96° |
| 2026-05-05 19:46 | 7.88490 | -69.72732 | 36966 ft | 442 kts | 96° |
| 2026-05-05 19:47 | 7.87725 | -69.66603 | 36966 ft | 442 kts | 96° |
| 2026-05-05 19:47 | 7.86961 | -69.60487 | 36966 ft | 442 kts | 96° |
| 2026-05-05 19:48 | 7.86192 | -69.54346 | 36966 ft | 442 kts | 96° |
| 2026-05-05 19:48 | 7.85420 | -69.48201 | 36966 ft | 442 kts | 96° |
| 2026-05-05 19:49 | 7.84657 | -69.42110 | 36966 ft | 442 kts | 96° |
| 2026-05-05 19:49 | 7.83884 | -69.35951 | 36966 ft | 441 kts | 96° |
| 2026-05-05 19:50 | 7.83118 | -69.29837 | 36965 ft | 442 kts | 96° |
| 2026-05-05 19:50 | 7.82342 | -69.23678 | 36963 ft | 442 kts | 96° |
| 2026-05-05 19:51 | 7.81563 | -69.17554 | 36962 ft | 442 kts | 96° |
| 2026-05-05 19:51 | 7.80698 | -69.11447 | 36960 ft | 442 kts | 97° |
| 2026-05-05 19:52 | 7.79817 | -69.05354 | 36963 ft | 441 kts | 97° |
| 2026-05-05 19:52 | 7.78936 | -68.99236 | 36967 ft | 442 kts | 97° |
| 2026-05-05 19:53 | 7.78054 | -68.93112 | 36969 ft | 442 kts | 97° |
| 2026-05-05 19:53 | 7.77173 | -68.86993 | 36970 ft | 442 kts | 97° |
| 2026-05-05 19:54 | 7.76290 | -68.80859 | 36967 ft | 442 kts | 97° |
| 2026-05-05 19:54 | 7.75406 | -68.74735 | 36964 ft | 442 kts | 96° |
| 2026-05-05 19:55 | 7.74526 | -68.68630 | 36961 ft | 442 kts | 96° |
| 2026-05-05 19:55 | 7.73646 | -68.62520 | 36958 ft | 442 kts | 97° |
| 2026-05-05 19:56 | 7.72761 | -68.56403 | 36956 ft | 442 kts | 97° |
| 2026-05-05 19:56 | 7.71874 | -68.50269 | 36952 ft | 442 kts | 96° |
| 2026-05-05 19:57 | 7.70986 | -68.44137 | 36950 ft | 442 kts | 96° |
| 2026-05-05 19:57 | 7.70104 | -68.38046 | 36947 ft | 443 kts | 96° |
| 2026-05-05 19:58 | 7.69210 | -68.31886 | 36943 ft | 443 kts | 97° |
| 2026-05-05 19:58 | 7.68323 | -68.25776 | 36941 ft | 443 kts | 97° |
| 2026-05-05 19:59 | 7.67432 | -68.19658 | 36939 ft | 442 kts | 97° |
| 2026-05-05 19:59 | 7.66544 | -68.13556 | 36938 ft | 442 kts | 96° |
| 2026-05-05 20:00 | 7.65654 | -68.07439 | 36931 ft | 442 kts | 97° |
| 2026-05-05 20:00 | 7.64760 | -68.01293 | 36924 ft | 442 kts | 97° |
| 2026-05-05 20:01 | 7.63869 | -67.95207 | 36917 ft | 443 kts | 96° |
| 2026-05-05 20:01 | 7.62974 | -67.89065 | 36912 ft | 443 kts | 97° |
| 2026-05-05 20:02 | 7.62075 | -67.82921 | 36912 ft | 443 kts | 97° |
| 2026-05-05 20:02 | 7.61184 | -67.76834 | 36912 ft | 443 kts | 97° |
| 2026-05-05 20:03 | 7.60286 | -67.70708 | 36912 ft | 443 kts | 97° |
| 2026-05-05 20:03 | 7.59385 | -67.64568 | 36912 ft | 443 kts | 97° |
| 2026-05-05 20:04 | 7.58486 | -67.58449 | 36912 ft | 443 kts | 97° |
| 2026-05-05 20:04 | 7.57580 | -67.52280 | 36912 ft | 443 kts | 97° |
| 2026-05-05 20:05 | 7.56677 | -67.46148 | 36912 ft | 443 kts | 97° |
| 2026-05-05 20:05 | 7.55776 | -67.40028 | 36912 ft | 444 kts | 97° |
| 2026-05-05 20:06 | 7.54868 | -67.33867 | 36912 ft | 444 kts | 97° |
| 2026-05-05 20:06 | 7.53962 | -67.27727 | 36912 ft | 444 kts | 97° |
| 2026-05-05 20:07 | 7.53062 | -67.21632 | 36912 ft | 444 kts | 97° |
| 2026-05-05 20:07 | 7.52150 | -67.15466 | 36912 ft | 444 kts | 97° |
| 2026-05-05 20:08 | 7.51241 | -67.09322 | 36912 ft | 444 kts | 97° |
| 2026-05-05 20:08 | 7.50332 | -67.03189 | 36912 ft | 444 kts | 97° |
| 2026-05-05 20:09 | 7.49421 | -66.97042 | 36912 ft | 445 kts | 97° |
| 2026-05-05 20:09 | 7.48511 | -66.90916 | 36912 ft | 445 kts | 97° |
| 2026-05-05 20:10 | 7.47594 | -66.84741 | 36912 ft | 445 kts | 97° |
| 2026-05-05 20:10 | 7.46681 | -66.78607 | 36912 ft | 445 kts | 97° |
| 2026-05-05 20:11 | 7.45763 | -66.72437 | 36912 ft | 445 kts | 97° |
| 2026-05-05 20:11 | 7.44849 | -66.66317 | 36912 ft | 445 kts | 97° |
| 2026-05-05 20:12 | 7.43927 | -66.60133 | 36912 ft | 446 kts | 97° |
| 2026-05-05 20:12 | 7.43007 | -66.53969 | 36912 ft | 446 kts | 97° |
| 2026-05-05 20:13 | 7.42087 | -66.47807 | 36912 ft | 446 kts | 97° |
| 2026-05-05 20:13 | 7.41217 | -66.41637 | 36912 ft | 446 kts | 95° |
| 2026-05-05 20:14 | 7.40460 | -66.35458 | 36912 ft | 446 kts | 95° |
| 2026-05-05 20:14 | 7.39705 | -66.29299 | 36912 ft | 446 kts | 95° |
| 2026-05-05 20:15 | 7.38941 | -66.23119 | 36912 ft | 446 kts | 95° |
| 2026-05-05 20:15 | 7.38171 | -66.16917 | 36918 ft | 446 kts | 95° |
| 2026-05-05 20:16 | 7.37398 | -66.10716 | 36925 ft | 446 kts | 95° |
| 2026-05-05 20:16 | 7.36630 | -66.04562 | 36932 ft | 446 kts | 95° |
| 2026-05-05 20:17 | 7.35851 | -65.98332 | 36938 ft | 447 kts | 95° |
| 2026-05-05 20:17 | 7.35075 | -65.92136 | 36939 ft | 448 kts | 95° |
| 2026-05-05 20:18 | 7.34299 | -65.85934 | 36939 ft | 448 kts | 95° |
| 2026-05-05 20:18 | 7.33525 | -65.79757 | 36939 ft | 447 kts | 95° |
| 2026-05-05 20:19 | 7.32747 | -65.73569 | 36939 ft | 447 kts | 95° |
| 2026-05-05 20:19 | 7.31961 | -65.67335 | 36939 ft | 447 kts | 95° |
| 2026-05-05 20:20 | 7.31183 | -65.61140 | 36939 ft | 447 kts | 95° |
| 2026-05-05 20:20 | 7.30405 | -65.54968 | 36939 ft | 447 kts | 95° |
| 2026-05-05 20:21 | 7.29619 | -65.48742 | 36939 ft | 447 kts | 95° |
| 2026-05-05 20:21 | 7.28835 | -65.42542 | 36939 ft | 447 kts | 95° |
| 2026-05-05 20:22 | 7.28052 | -65.36346 | 36939 ft | 448 kts | 95° |
| 2026-05-05 20:22 | 7.27265 | -65.30137 | 36939 ft | 448 kts | 96° |
| 2026-05-05 20:23 | 7.26482 | -65.23953 | 36939 ft | 448 kts | 96° |
| 2026-05-05 20:23 | 7.25697 | -65.17751 | 36939 ft | 448 kts | 96° |
| 2026-05-05 20:24 | 7.24906 | -65.11531 | 36939 ft | 448 kts | 96° |
| 2026-05-05 20:24 | 7.24118 | -65.05343 | 36939 ft | 448 kts | 96° |
| 2026-05-05 20:25 | 7.23324 | -64.99103 | 36939 ft | 448 kts | 96° |
| 2026-05-05 20:25 | 7.22535 | -64.92916 | 36939 ft | 448 kts | 96° |
| 2026-05-05 20:26 | 7.21740 | -64.86694 | 36939 ft | 448 kts | 96° |
| 2026-05-05 20:26 | 7.20951 | -64.80516 | 36939 ft | 448 kts | 96° |
| 2026-05-05 20:27 | 7.20152 | -64.74263 | 36939 ft | 449 kts | 96° |
| 2026-05-05 20:27 | 7.19360 | -64.68083 | 36939 ft | 449 kts | 96° |
| 2026-05-05 20:28 | 7.18563 | -64.61860 | 36939 ft | 449 kts | 96° |
| 2026-05-05 20:28 | 7.17761 | -64.55615 | 36939 ft | 449 kts | 96° |
| 2026-05-05 20:29 | 7.16962 | -64.49389 | 36939 ft | 449 kts | 96° |
| 2026-05-05 20:29 | 7.16163 | -64.43181 | 36939 ft | 449 kts | 96° |
| 2026-05-05 20:30 | 7.15363 | -64.36964 | 36939 ft | 449 kts | 96° |
| 2026-05-05 20:30 | 7.14561 | -64.30740 | 36939 ft | 449 kts | 96° |
| 2026-05-05 20:31 | 7.13757 | -64.24503 | 36939 ft | 449 kts | 96° |
| 2026-05-05 20:31 | 7.12955 | -64.18293 | 36939 ft | 449 kts | 96° |
| 2026-05-05 20:32 | 7.12150 | -64.12065 | 36939 ft | 449 kts | 96° |
| 2026-05-05 20:32 | 7.11343 | -64.05846 | 36987 ft | 448 kts | 96° |
| 2026-05-05 20:33 | 7.10531 | -63.99634 | 36999 ft | 450 kts | 96° |
| 2026-05-05 20:33 | 7.09714 | -63.93375 | 37000 ft | 451 kts | 96° |
| 2026-05-05 20:34 | 7.08894 | -63.87130 | 37000 ft | 451 kts | 96° |
| 2026-05-05 20:34 | 7.08075 | -63.80886 | 36999 ft | 449 kts | 96° |
| 2026-05-05 20:35 | 7.07261 | -63.74685 | 36911 ft | 451 kts | 96° |
| 2026-05-05 20:35 | 7.06437 | -63.68423 | 36916 ft | 449 kts | 96° |
| 2026-05-05 20:36 | 7.05618 | -63.62198 | 36915 ft | 450 kts | 96° |
| 2026-05-05 20:36 | 7.04800 | -63.55992 | 36913 ft | 450 kts | 96° |
| 2026-05-05 20:37 | 7.03978 | -63.49757 | 36912 ft | 451 kts | 96° |
| 2026-05-05 20:37 | 7.03153 | -63.43505 | 36912 ft | 450 kts | 96° |
| 2026-05-05 20:38 | 7.02329 | -63.37272 | 36912 ft | 450 kts | 96° |
| 2026-05-05 20:38 | 7.01505 | -63.31034 | 36912 ft | 451 kts | 96° |
| 2026-05-05 20:39 | 7.00676 | -63.24777 | 36912 ft | 451 kts | 96° |
| 2026-05-05 20:39 | 6.99846 | -63.18511 | 36912 ft | 451 kts | 96° |
| 2026-05-05 20:40 | 6.99019 | -63.12280 | 36912 ft | 451 kts | 96° |
| 2026-05-05 20:40 | 6.98192 | -63.06054 | 36917 ft | 451 kts | 97° |
| 2026-05-05 20:41 | 6.97361 | -62.99797 | 36924 ft | 451 kts | 97° |
| 2026-05-05 20:41 | 6.96532 | -62.93565 | 36931 ft | 451 kts | 97° |
| 2026-05-05 20:42 | 6.95700 | -62.87320 | 36938 ft | 452 kts | 97° |
| 2026-05-05 20:42 | 6.94864 | -62.81050 | 36939 ft | 452 kts | 97° |
| 2026-05-05 20:43 | 6.94031 | -62.74813 | 36939 ft | 452 kts | 97° |
| 2026-05-05 20:43 | 6.93193 | -62.68540 | 36939 ft | 452 kts | 97° |
| 2026-05-05 20:44 | 6.92359 | -62.62306 | 36939 ft | 452 kts | 97° |
| 2026-05-05 20:44 | 6.91519 | -62.56034 | 36939 ft | 452 kts | 97° |
| 2026-05-05 20:45 | 6.90262 | -62.46655 | 36939 ft | 452 kts | 97° |
| 2026-05-05 20:45 | 6.89421 | -62.40387 | 36939 ft | 452 kts | 97° |
| 2026-05-05 20:46 | 6.88584 | -62.34155 | 36938 ft | 451 kts | 97° |
| 2026-05-05 20:46 | 6.87746 | -62.27930 | 36939 ft | 451 kts | 97° |
| 2026-05-05 20:47 | 6.86905 | -62.21680 | 36939 ft | 451 kts | 97° |
| 2026-05-05 20:47 | 6.86060 | -62.15411 | 36939 ft | 452 kts | 97° |
| 2026-05-05 20:48 | 6.85215 | -62.09156 | 36945 ft | 452 kts | 97° |
| 2026-05-05 20:48 | 6.84370 | -62.02896 | 36952 ft | 451 kts | 97° |
| 2026-05-05 20:49 | 6.83535 | -61.96695 | 36959 ft | 452 kts | 97° |
| 2026-05-05 20:49 | 6.82683 | -61.90390 | 36966 ft | 453 kts | 97° |
| 2026-05-05 20:50 | 6.81835 | -61.84143 | 36966 ft | 453 kts | 97° |
| 2026-05-05 20:50 | 6.80989 | -61.77906 | 36966 ft | 452 kts | 97° |
| 2026-05-05 20:51 | 6.80134 | -61.71619 | 36966 ft | 453 kts | 97° |
| 2026-05-05 20:51 | 6.79285 | -61.65367 | 36966 ft | 454 kts | 97° |
| 2026-05-05 20:52 | 6.78432 | -61.59100 | 36966 ft | 454 kts | 97° |
| 2026-05-05 20:52 | 6.77580 | -61.52834 | 36966 ft | 453 kts | 97° |
| 2026-05-05 20:53 | 6.76724 | -61.46550 | 36966 ft | 453 kts | 97° |
| 2026-05-05 20:53 | 6.75868 | -61.40273 | 36966 ft | 454 kts | 97° |
| 2026-05-05 20:54 | 6.75010 | -61.33995 | 36966 ft | 454 kts | 97° |
| 2026-05-05 20:54 | 6.74154 | -61.27726 | 36966 ft | 454 kts | 97° |
| 2026-05-05 20:55 | 6.73296 | -61.21450 | 36966 ft | 454 kts | 97° |
| 2026-05-05 20:55 | 6.72437 | -61.15175 | 36966 ft | 454 kts | 97° |
| 2026-05-05 20:56 | 6.71577 | -61.08901 | 36965 ft | 454 kts | 97° |
| 2026-05-05 20:56 | 6.70742 | -61.02626 | 36962 ft | 454 kts | 95° |
| 2026-05-05 20:57 | 6.70263 | -60.96320 | 36960 ft | 454 kts | 94° |
| 2026-05-05 20:57 | 6.69827 | -60.89978 | 36959 ft | 454 kts | 94° |
| 2026-05-05 20:58 | 6.69379 | -60.83689 | 36957 ft | 454 kts | 94° |
| 2026-05-05 20:58 | 6.68921 | -60.77364 | 36956 ft | 454 kts | 94° |
| 2026-05-05 20:59 | 6.68457 | -60.71024 | 36954 ft | 454 kts | 94° |
| 2026-05-05 20:59 | 6.67989 | -60.64690 | 36953 ft | 454 kts | 94° |
| 2026-05-05 21:00 | 6.67522 | -60.58376 | 36951 ft | 454 kts | 94° |
| 2026-05-05 21:00 | 6.67053 | -60.52076 | 36949 ft | 454 kts | 94° |
| 2026-05-05 21:01 | 6.66581 | -60.45748 | 36948 ft | 454 kts | 94° |
| 2026-05-05 21:01 | 6.66111 | -60.39450 | 36946 ft | 454 kts | 94° |
| 2026-05-05 21:02 | 6.65638 | -60.33129 | 36945 ft | 454 kts | 94° |
| 2026-05-05 21:02 | 6.65165 | -60.26825 | 36943 ft | 452 kts | 94° |
| 2026-05-05 21:03 | 6.64689 | -60.20520 | 36942 ft | 452 kts | 94° |
| 2026-05-05 21:03 | 6.64204 | -60.14236 | 36944 ft | 453 kts | 94° |
| 2026-05-05 21:04 | 6.63713 | -60.07898 | 36823 ft | 451 kts | 94° |
| 2026-05-05 21:04 | 6.63471 | -60.04772 | 36212 ft | 451 kts | 95° |
| 2026-05-05 21:04 | 6.63230 | -60.01641 | 35500 ft | 452 kts | 95° |
| 2026-05-05 21:05 | 6.62990 | -59.98517 | 34998 ft | 447 kts | 95° |
| 2026-05-05 21:05 | 6.62750 | -59.95408 | 34467 ft | 444 kts | 95° |
| 2026-05-05 21:05 | 6.62514 | -59.92364 | 33939 ft | 440 kts | 95° |
| 2026-05-05 21:05 | 6.62274 | -59.89297 | 33410 ft | 437 kts | 95° |
| 2026-05-05 21:06 | 6.62037 | -59.86280 | 32887 ft | 434 kts | 95° |
| 2026-05-05 21:06 | 6.61803 | -59.83288 | 32369 ft | 431 kts | 95° |
| 2026-05-05 21:06 | 6.61570 | -59.80302 | 31852 ft | 428 kts | 95° |
| 2026-05-05 21:06 | 6.61336 | -59.77317 | 31334 ft | 425 kts | 95° |
| 2026-05-05 21:07 | 6.61104 | -59.74366 | 30818 ft | 422 kts | 95° |
| 2026-05-05 21:07 | 6.60876 | -59.71434 | 30300 ft | 420 kts | 95° |
| 2026-05-05 21:07 | 6.60646 | -59.68504 | 29786 ft | 417 kts | 95° |
| 2026-05-05 21:07 | 6.60423 | -59.65638 | 29280 ft | 415 kts | 95° |
| 2026-05-05 21:08 | 6.60199 | -59.62766 | 28772 ft | 412 kts | 95° |
| 2026-05-05 21:08 | 6.59976 | -59.59899 | 28265 ft | 409 kts | 95° |
| 2026-05-05 21:08 | 6.59755 | -59.57064 | 27765 ft | 406 kts | 95° |
| 2026-05-05 21:08 | 6.59562 | -59.54251 | 27224 ft | 405 kts | 93° |
| 2026-05-05 21:09 | 6.59541 | -59.51417 | 26670 ft | 404 kts | 89° |
| 2026-05-05 21:09 | 6.59847 | -59.48657 | 26101 ft | 404 kts | 81° |
| 2026-05-05 21:09 | 6.60400 | -59.45887 | 25531 ft | 403 kts | 79° |
| 2026-05-05 21:09 | 6.60991 | -59.43128 | 25027 ft | 399 kts | 79° |
| 2026-05-05 21:10 | 6.61572 | -59.40442 | 24540 ft | 396 kts | 79° |
| 2026-05-05 21:10 | 6.62153 | -59.37756 | 24056 ft | 392 kts | 79° |
| 2026-05-05 21:10 | 6.62733 | -59.35074 | 23576 ft | 388 kts | 79° |
| 2026-05-05 21:10 | 6.63297 | -59.32450 | 23092 ft | 385 kts | 79° |
| 2026-05-05 21:11 | 6.63860 | -59.29811 | 22646 ft | 380 kts | 81° |
| 2026-05-05 21:11 | 6.64060 | -59.27203 | 22296 ft | 372 kts | 95° |
| 2026-05-05 21:11 | 6.63614 | -59.24684 | 20948 ft | 380 kts | 107° |
| 2026-05-05 21:11 | 6.62820 | -59.22136 | 19955 ft | 376 kts | 108° |
| 2026-05-05 21:12 | 6.62043 | -59.19668 | 18999 ft | 372 kts | 107° |
| 2026-05-05 21:12 | 6.61300 | -59.17218 | 18124 ft | 366 kts | 106° |
| 2026-05-05 21:12 | 6.60599 | -59.14783 | 17216 ft | 360 kts | 105° |
| 2026-05-05 21:12 | 6.59979 | -59.12396 | 16396 ft | 353 kts | 103° |
| 2026-05-05 21:13 | 6.59414 | -59.10016 | 15880 ft | 347 kts | 103° |
| 2026-05-05 21:13 | 6.58886 | -59.07686 | 15526 ft | 340 kts | 102° |
| 2026-05-05 21:13 | 6.58517 | -59.05355 | 15128 ft | 334 kts | 94° |
| 2026-05-05 21:13 | 6.58243 | -59.03061 | 14727 ft | 335 kts | 101° |
| 2026-05-05 21:14 | 6.57716 | -59.00761 | 14325 ft | 336 kts | 104° |
| 2026-05-05 21:14 | 6.57147 | -58.98523 | 13831 ft | 333 kts | 104° |
| 2026-05-05 21:14 | 6.56572 | -58.96286 | 13340 ft | 330 kts | 104° |
| 2026-05-05 21:14 | 6.55992 | -58.94054 | 12876 ft | 327 kts | 105° |
| 2026-05-05 21:15 | 6.55413 | -58.91866 | 12395 ft | 324 kts | 105° |
| 2026-05-05 21:15 | 6.54827 | -58.89690 | 11918 ft | 321 kts | 105° |
| 2026-05-05 21:15 | 6.54236 | -58.87541 | 11448 ft | 318 kts | 106° |
| 2026-05-05 21:15 | 6.53630 | -58.85419 | 10970 ft | 316 kts | 106° |
| 2026-05-05 21:16 | 6.53016 | -58.83304 | 10560 ft | 311 kts | 106° |
| 2026-05-05 21:16 | 6.52421 | -58.81259 | 10342 ft | 301 kts | 106° |
| 2026-05-05 21:16 | 6.51872 | -58.79288 | 10264 ft | 287 kts | 105° |
| 2026-05-05 21:16 | 6.51347 | -58.77398 | 10139 ft | 276 kts | 105° |
| 2026-05-05 21:17 | 6.50842 | -58.75529 | 9822 ft | 273 kts | 104° |
| 2026-05-05 21:17 | 6.50352 | -58.73694 | 9475 ft | 272 kts | 105° |
| 2026-05-05 21:17 | 6.49849 | -58.71875 | 9124 ft | 271 kts | 105° |
| 2026-05-05 21:17 | 6.49362 | -58.70052 | 8775 ft | 269 kts | 103° |
| 2026-05-05 21:18 | 6.48885 | -58.68245 | 8441 ft | 268 kts | 105° |
| 2026-05-05 21:18 | 6.48390 | -58.66458 | 8078 ft | 267 kts | 104° |
| 2026-05-05 21:18 | 6.47901 | -58.64655 | 7760 ft | 265 kts | 104° |
| 2026-05-05 21:18 | 6.47424 | -58.62868 | 7408 ft | 263 kts | 104° |
| 2026-05-05 21:19 | 6.46958 | -58.61115 | 7078 ft | 262 kts | 104° |
| 2026-05-05 21:19 | 6.46483 | -58.59349 | 6759 ft | 260 kts | 104° |
| 2026-05-05 21:19 | 6.46017 | -58.57606 | 6432 ft | 259 kts | 104° |
| 2026-05-05 21:19 | 6.45547 | -58.55859 | 6113 ft | 257 kts | 104° |
| 2026-05-05 21:20 | 6.45094 | -58.54140 | 5793 ft | 255 kts | 103° |
| 2026-05-05 21:20 | 6.44628 | -58.52417 | 5456 ft | 255 kts | 104° |
| 2026-05-05 21:20 | 6.44171 | -58.50730 | 5302 ft | 246 kts | 103° |
| 2026-05-05 21:20 | 6.43731 | -58.49102 | 5247 ft | 235 kts | 103° |
| 2026-05-05 21:21 | 6.43317 | -58.47541 | 5186 ft | 230 kts | 103° |
| 2026-05-05 21:21 | 6.42690 | -58.46075 | 4974 ft | 231 kts | 125° |
| 2026-05-05 21:21 | 6.41548 | -58.44856 | 4766 ft | 245 kts | 133° |
| 2026-05-05 21:21 | 6.40319 | -58.43678 | 4468 ft | 247 kts | 133° |
| 2026-05-05 21:22 | 6.39090 | -58.42485 | 4177 ft | 245 kts | 133° |
| 2026-05-05 21:22 | 6.37922 | -58.41279 | 3942 ft | 235 kts | 126° |
| 2026-05-05 21:22 | 6.37228 | -58.39892 | 3710 ft | 213 kts | 95° |
| 2026-05-05 21:22 | 6.37516 | -58.38544 | 3601 ft | 192 kts | 58° |
| 2026-05-05 21:23 | 6.38309 | -58.37502 | 3213 ft | 190 kts | 57° |
| 2026-05-05 21:23 | 6.38990 | -58.36375 | 2878 ft | 184 kts | 54° |
| 2026-05-05 21:23 | 6.39816 | -58.35452 | 2608 ft | 176 kts | 46° |
| 2026-05-05 21:23 | 6.40655 | -58.34600 | 2382 ft | 167 kts | 46° |
| 2026-05-05 21:24 | 6.41462 | -58.33791 | 2143 ft | 157 kts | 45° |
| 2026-05-05 21:24 | 6.42211 | -58.33039 | 1956 ft | 147 kts | 44° |
| 2026-05-05 21:24 | 6.42935 | -58.32319 | 1728 ft | 147 kts | 44° |
| 2026-05-05 21:24 | 6.43644 | -58.31608 | 1545 ft | 146 kts | 44° |
| 2026-05-05 21:25 | 6.44371 | -58.30886 | 1332 ft | 146 kts | 42° |
| 2026-05-05 21:25 | 6.45106 | -58.30159 | 1140 ft | 147 kts | 42° |
| 2026-05-05 21:25 | 6.45823 | -58.29432 | 925 ft | 150 kts | 44° |
| 2026-05-05 21:25 | 6.46589 | -58.28675 | 727 ft | 156 kts | 44° |
| 2026-05-05 21:26 | 6.47353 | -58.27914 | 510 ft | 156 kts | 44° |
| 2026-05-05 21:26 | 6.48124 | -58.27146 | 449 ft | 153 kts | 45° |
| 2026-05-05 21:26 | 6.48889 | -58.26378 | 240 ft | 155 kts | 45° |
| 2026-05-05 21:26 | 6.49638 | -58.25634 | 105 ft | 137 kts | 44° |
| 2026-05-05 21:27 | 6.50209 | -58.25067 | 104 ft | 95 kts | 46° |
| 2026-05-05 21:27 | 6.50564 | -58.24712 | 104 ft | 47 kts | 45° |
| 2026-05-05 21:27 | 6.50699 | -58.24605 | 104 ft | 0 kts | 36° |
| 2026-05-05 21:27 | 6.50698 | -58.24606 | 104 ft | 0 kts | 29° |
| 2026-05-05 21:28 | 6.50701 | -58.24604 | 104 ft | 0 kts | 39° |
| 2026-05-05 21:28 | 6.50703 | -58.24600 | 104 ft | 0 kts | 70° |
| 2026-05-05 21:28 | 6.50698 | -58.24585 | 104 ft | 4 kts | 127° |
| 2026-05-05 21:28 | 6.50676 | -58.24586 | 104 ft | 4 kts | 232° |
| 2026-05-05 21:29 | 6.50642 | -58.24656 | 104 ft | 12 kts | 280° |
| 2026-05-05 21:29 | 6.50661 | -58.24718 | 104 ft | 11 kts | 257° |
| 2026-05-05 21:29 | 6.50616 | -58.24803 | 104 ft | 13 kts | 233° |
| 2026-05-05 21:29 | 6.50559 | -58.24869 | 104 ft | 11 kts | 224° |
| 2026-05-05 21:30 | 6.50503 | -58.24924 | 104 ft | 11 kts | 224° |
| 2026-05-05 21:30 | 6.50439 | -58.24989 | 104 ft | 15 kts | 225° |
| 2026-05-05 21:30 | 6.50361 | -58.25066 | 104 ft | 11 kts | 224° |
| 2026-05-05 21:30 | 6.50344 | -58.25104 | 104 ft | 6 kts | 302° |
| 2026-05-05 21:31 | 6.50357 | -58.25143 | 104 ft | 7 kts | 252° |
| 2026-05-05 21:31 | 6.50329 | -58.25180 | 104 ft | 4 kts | 254° |
| 2026-05-05 21:31 | 6.50344 | -58.25191 | 104 ft | 4 kts | 340° |
| 2026-05-05 21:31 | 6.50365 | -58.25207 | 104 ft | 4 kts | 316° |
| 2026-05-05 21:32 | 6.50370 | -58.25211 | 104 ft | 0 kts | 315° |